Arklow Spray — C6VK8 — position and weather

sailwx.info

Track history (hours):
 
Tides and Currents Weather Stations Pressure Air Temp Water Temp Dewpoint Dewpoint Depression Visibility Wind Speed Wind Dir Waves Ship Positions

Arklow Spray

Last reported at 2015-May-16 00:20 UTC. Time now 2015-May-27 16:00 UTC.
Position N 39°45' E 024°54'.
Warning: this ship's position is 11 days out of date.

Length 90 m; draft 3.8 m.

Type: Cargo ship. MMSI: 309914000.

Date/timePositionNaut miles runAvg speedWind from/ knotsBaromVisibWave heightAir tempDewpointWater temp
2015-May-16 00:20N 39°45' E 024°54'910.9
2015-May-15 23:29N 39°46' E 024°42'2110.4
2015-May-15 21:26N 39°49' E 024°14'13 0.6
2015-May-14 23:09N 39°42' E 023°60'710.5
2015-May-14 22:32N 39°39' E 024°07'  
2015-May-12 07:20N 36°27' E 015°08'1910.6
2015-May-12 05:29N 36°29' E 014°44'1010.9
2015-May-12 04:34N 36°31' E 014°31'1110.6
2015-May-12 03:34N 36°32' E 014°18'1110.7
2015-May-12 02:34N 36°33' E 014°05'1110.5
2015-May-12 01:28N 36°35' E 013°51'7110.3
2015-May-11 18:33N 36°59' E 012°27'1010.5
2015-May-11 17:34N 37°02' E 012°15'1110.5
2015-May-11 16:34N 37°06' E 012°02'1210.7
2015-May-11 15:25N 37°10' E 011°48'2110.8
2015-May-11 13:31N 37°17' E 011°24'8911.2
2015-May-11 05:34N 37°35' E 009°34'29110.8
2015-May-10 02:33N 37°04' E 003°30'1411.4
2015-May-10 01:19N 37°03' E 003°13'1211.5
2015-May-10 00:17N 37°00' E 002°58'811.4
2015-May-09 23:33N 36°58' E 002°48'1211.1
2015-May-09 22:29N 36°56' E 002°34'1511.0
2015-May-09 21:08N 36°53' E 002°16'711.4
2015-May-09 20:33N 36°51' E 002°07'1111.3
2015-May-09 19:33N 36°48' E 001°54'1110.8
2015-May-09 18:32N 36°46' E 001°40'1110.9
2015-May-09 17:33N 36°44' E 001°27'1111.1
2015-May-09 16:33N 36°43' E 001°13'1111.3
2015-May-09 15:33N 36°41' E 000°60'1111.3
2015-May-09 14:33N 36°39' E 000°46'1111.0
2015-May-09 13:31N 36°37' E 000°32'10810.6
2015-May-09 03:16N 36°21' W 001°42'2010.4
2015-May-09 01:20N 36°18' W 002°07'810.1
2015-May-09 00:33N 36°17' W 002°16'14710.5
2015-May-08 10:33N 35°56' W 005°16'3 3.0
2015-May-08 09:32N 35°54' W 005°18'0 0.0
2015-May-08 08:32N 35°54' W 005°18'68 5.5
2015-May-07 20:05N 35°59' W 006°42'611.1
2015-May-07 19:33N 36°00' W 006°49'1111.3
2015-May-07 18:33N 36°03' W 007°03'8010.8
2015-May-07 11:08N 36°26' W 008°38'610.5
2015-May-07 10:33N 36°28' W 008°45'77 9.2
2015-May-07 02:13N 37°28' W 009°45'710.4
2015-May-07 01:32N 37°35' W 009°47'10 9.9
2015-May-07 00:33N 37°45' W 009°50'11 9.8
2015-May-06 23:25N 37°56' W 009°53'11 9.8
2015-May-06 22:17N 38°07' W 009°56'7 9.8
2015-May-06 21:33N 38°13' W 009°58'1010.0
2015-May-06 20:33N 38°23' W 010°01'10 9.8
2015-May-06 19:33N 38°33' W 010°04'10 9.9
2015-May-06 18:32N 38°43' W 010°06'1010.0
2015-May-06 17:33N 38°52' W 010°05'10 9.8
2015-May-06 16:33N 39°02' W 010°04'  
Track history (hours):
 
Tides and Currents Weather Stations Pressure Air Temp Water Temp Dewpoint Dewpoint Depression Visibility Wind Speed Wind Dir Waves Ship Positions

Arklow Spray

Last reported at 2015-May-16 00:20 UTC. Time now 2015-May-27 16:00 UTC.
Position N 39°45' E 024°54'.
Warning: this ship's position is 11 days out of date.

Length 90 m; draft 3.8 m.

Type: Cargo ship. MMSI: 309914000.

Date/timePositionNaut miles runAvg speedWind from/ knotsBaromVisibWave heightAir tempDewpointWater temp
2015-May-16 00:20N 39°45' E 024°54'910.9
2015-May-15 23:29N 39°46' E 024°42'2110.4
2015-May-15 21:26N 39°49' E 024°14'13 0.6
2015-May-14 23:09N 39°42' E 023°60'710.5
2015-May-14 22:32N 39°39' E 024°07'  
2015-May-12 07:20N 36°27' E 015°08'1910.6
2015-May-12 05:29N 36°29' E 014°44'1010.9
2015-May-12 04:34N 36°31' E 014°31'1110.6
2015-May-12 03:34N 36°32' E 014°18'1110.7
2015-May-12 02:34N 36°33' E 014°05'1110.5
2015-May-12 01:28N 36°35' E 013°51'7110.3
2015-May-11 18:33N 36°59' E 012°27'1010.5
2015-May-11 17:34N 37°02' E 012°15'1110.5
2015-May-11 16:34N 37°06' E 012°02'1210.7
2015-May-11 15:25N 37°10' E 011°48'2110.8
2015-May-11 13:31N 37°17' E 011°24'8911.2
2015-May-11 05:34N 37°35' E 009°34'29110.8
2015-May-10 02:33N 37°04' E 003°30'1411.4
2015-May-10 01:19N 37°03' E 003°13'1211.5
2015-May-10 00:17N 37°00' E 002°58'811.4
2015-May-09 23:33N 36°58' E 002°48'1211.1
2015-May-09 22:29N 36°56' E 002°34'1511.0
2015-May-09 21:08N 36°53' E 002°16'711.4
2015-May-09 20:33N 36°51' E 002°07'1111.3
2015-May-09 19:33N 36°48' E 001°54'1110.8
2015-May-09 18:32N 36°46' E 001°40'1110.9
2015-May-09 17:33N 36°44' E 001°27'1111.1
2015-May-09 16:33N 36°43' E 001°13'1111.3
2015-May-09 15:33N 36°41' E 000°60'1111.3
2015-May-09 14:33N 36°39' E 000°46'1111.0
2015-May-09 13:31N 36°37' E 000°32'10810.6
2015-May-09 03:16N 36°21' W 001°42'2010.4
2015-May-09 01:20N 36°18' W 002°07'810.1
2015-May-09 00:33N 36°17' W 002°16'14710.5
2015-May-08 10:33N 35°56' W 005°16'3 3.0
2015-May-08 09:32N 35°54' W 005°18'0 0.0
2015-May-08 08:32N 35°54' W 005°18'68 5.5
2015-May-07 20:05N 35°59' W 006°42'611.1
2015-May-07 19:33N 36°00' W 006°49'1111.3
2015-May-07 18:33N 36°03' W 007°03'8010.8
2015-May-07 11:08N 36°26' W 008°38'610.5
2015-May-07 10:33N 36°28' W 008°45'77 9.2
2015-May-07 02:13N 37°28' W 009°45'710.4
2015-May-07 01:32N 37°35' W 009°47'10 9.9
2015-May-07 00:33N 37°45' W 009°50'11 9.8
2015-May-06 23:25N 37°56' W 009°53'11 9.8
2015-May-06 22:17N 38°07' W 009°56'7 9.8
2015-May-06 21:33N 38°13' W 009°58'1010.0
2015-May-06 20:33N 38°23' W 010°01'10 9.8
2015-May-06 19:33N 38°33' W 010°04'10 9.9
2015-May-06 18:32N 38°43' W 010°06'1010.0
2015-May-06 17:33N 38°52' W 010°05'10 9.8
2015-May-06 16:33N 39°02' W 010°04'  

Dump ship's entire track history